Time;durP1;ratioP1;P1;durP2;ratioP2;P2;SDS_P1;SDS_P2;PMS_P1;PMS_P2;Temp;Humidity;BMP_temperature;BMP_pressure;BME280_temperature;BME280_humidity;BME280_pressure;Samples;Min_cycle;Max_cycle;Signal;HPM_P1;HPM_P2
2023/04/08 00:00:44;;;;;;;;;61.00;50.25;;;;;;;;6489398;31;8918;-51
2023/04/08 00:06:47;;;;;;;;;58.25;45.75;;;;;;;;6488273;39;9528;-50
2023/04/08 00:12:54;;;;;;;;;60.00;45.00;;;;;;;;6488997;46;9005;-49
2023/04/08 00:18:57;;;;;;;;;59.25;48.00;;;;;;;;6488012;46;8907;-50
2023/04/08 00:25:00;;;;;;;;;59.00;48.25;;;;;;;;6488967;46;8921;-50
2023/04/08 00:31:03;;;;;;;;;66.50;51.75;;;;;;;;6489429;39;8871;-48
2023/04/08 00:37:06;;;;;;;;;58.25;47.50;;;;;;;;6487970;46;8874;-52
2023/04/08 00:43:08;;;;;;;;;65.50;49.50;;;;;;;;6488712;46;8859;-52
2023/04/08 00:49:11;;;;;;;;;62.25;52.00;;;;;;;;6488435;39;8913;-52
2023/04/08 00:55:14;;;;;;;;;64.00;48.25;;;;;;;;6488057;46;8906;-52
2023/04/08 01:01:30;;;;;;;;;66.25;52.25;;;;;;;;6488701;32;8933;-50
2023/04/08 01:07:40;;;;;;;;;61.25;49.50;;;;;;;;6488866;39;8875;-51
2023/04/08 01:13:45;;;;;;;;;59.00;47.75;;;;;;;;6488224;39;9763;-50
2023/04/08 01:19:49;;;;;;;;;64.00;50.50;;;;;;;;6488371;46;8979;-53
2023/04/08 01:25:53;;;;;;;;;61.25;45.75;;;;;;;;6489054;31;8878;-51
2023/04/08 01:31:56;;;;;;;;;67.25;52.50;;;;;;;;6487897;39;9003;-52
2023/04/08 01:38:04;;;;;;;;;59.25;48.00;;;;;;;;6487780;31;8886;-54
2023/04/08 01:44:09;;;;;;;;;59.75;49.50;;;;;;;;6487958;39;8843;-52
2023/04/08 01:50:12;;;;;;;;;53.75;46.75;;;;;;;;6487953;39;8862;-51
2023/04/08 01:56:16;;;;;;;;;63.00;50.75;;;;;;;;6489300;39;9476;-50
2023/04/08 02:02:23;;;;;;;;;64.25;51.50;;;;;;;;6487441;31;8894;-50
2023/04/08 02:08:26;;;;;;;;;65.75;52.25;;;;;;;;6488358;46;8890;-52
2023/04/08 02:14:28;;;;;;;;;61.50;51.25;;;;;;;;6488085;39;8902;-52
2023/04/08 02:20:46;;;;;;;;;59.25;49.00;;;;;;;;6488079;39;8911;-52
2023/04/08 02:26:50;;;;;;;;;62.50;52.00;;;;;;;;6487475;47;8874;-52
2023/04/08 02:32:53;;;;;;;;;63.75;52.00;;;;;;;;6487170;31;8887;-51
2023/04/08 02:38:57;;;;;;;;;64.75;53.50;;;;;;;;6487810;39;8858;-51
2023/04/08 02:44:59;;;;;;;;;65.25;49.75;;;;;;;;6487340;39;8864;-50
2023/04/08 02:51:02;;;;;;;;;63.50;51.25;;;;;;;;6487641;47;9030;-50
2023/04/08 02:57:06;;;;;;;;;68.75;54.25;;;;;;;;6488852;31;8949;-53
2023/04/08 03:03:09;;;;;;;;;68.50;52.25;;;;;;;;6486753;39;8902;-50
2023/04/08 03:09:11;;;;;;;;;66.00;52.75;;;;;;;;6487489;47;8887;-51
2023/04/08 03:15:15;;;;;;;;;74.00;57.00;;;;;;;;6487609;46;9001;-52
2023/04/08 03:21:18;;;;;;;;;65.00;50.50;;;;;;;;6487899;39;9028;-50
2023/04/08 03:27:20;;;;;;;;;67.25;54.25;;;;;;;;6489882;31;8858;-52
2023/04/08 03:33:24;;;;;;;;;71.50;56.75;;;;;;;;6490050;39;8958;-52
2023/04/08 03:39:27;;;;;;;;;76.25;60.75;;;;;;;;6489340;46;8934;-50
2023/04/08 03:45:30;;;;;;;;;72.25;55.25;;;;;;;;6489400;46;8879;-52
2023/04/08 03:51:33;;;;;;;;;76.00;61.00;;;;;;;;6488788;46;8859;-49
2023/04/08 03:57:35;;;;;;;;;76.00;59.00;;;;;;;;6489206;46;8875;-51
2023/04/08 04:03:37;;;;;;;;;74.00;59.25;;;;;;;;6488439;39;8894;-53
2023/04/08 04:09:40;;;;;;;;;74.00;57.75;;;;;;;;6489412;39;8863;-49
2023/04/08 04:15:42;;;;;;;;;68.00;54.00;;;;;;;;6489116;46;8922;-51
